Time;durP1;ratioP1;P1;durP2;ratioP2;P2;SDS_P1;SDS_P2;PMS_P1;PMS_P2;Temp;Humidity;BMP_temperature;BMP_pressure;BME280_temperature;BME280_humidity;BME280_pressure;Samples;Min_cycle;Max_cycle;Signal;HPM_P1;HPM_P2
2024/01/06 00:00:36;;;;;;;13.48;8.93;;;11.80;99.90;;;;;;5031752;28;20053;-80
2024/01/06 00:03:02;;;;;;;15.68;9.75;;;11.90;99.90;;;;;;5032048;28;20033;-80
2024/01/06 00:05:28;;;;;;;13.45;8.45;;;11.90;99.90;;;;;;5031712;28;20034;-80
2024/01/06 00:07:54;;;;;;;14.63;8.80;;;11.90;99.90;;;;;;5031928;28;20033;-80
2024/01/06 00:10:19;;;;;;;14.48;8.05;;;11.90;99.90;;;;;;5032002;28;20108;-80
2024/01/06 00:12:45;;;;;;;11.48;7.78;;;11.90;99.90;;;;;;5032037;28;20101;-80
2024/01/06 00:15:11;;;;;;;13.00;8.73;;;11.90;99.90;;;;;;5031635;28;20033;-80
2024/01/06 00:17:37;;;;;;;11.20;7.78;;;11.90;99.90;;;;;;5032180;28;20033;-80
2024/01/06 00:20:04;;;;;;;10.70;7.43;;;11.90;99.90;;;;;;5020664;28;20026;-80
2024/01/06 00:22:30;;;;;;;16.55;9.00;;;11.90;99.90;;;;;;5031764;28;20021;-80
2024/01/06 00:24:55;;;;;;;14.63;7.93;;;11.90;99.90;;;;;;5034453;28;20032;-80
2024/01/06 00:27:21;;;;;;;13.50;8.43;;;11.90;99.90;;;;;;5022544;28;20042;-80
2024/01/06 00:29:47;;;;;;;14.77;7.97;;;11.90;99.90;;;;;;5033640;28;20035;-80
2024/01/06 00:32:13;;;;;;;11.48;6.78;;;12.00;99.90;;;;;;5035183;28;20022;-80
2024/01/06 00:34:38;;;;;;;14.38;7.95;;;12.00;99.90;;;;;;5035416;28;20434;-81
2024/01/06 00:37:04;;;;;;;11.25;7.70;;;12.00;99.90;;;;;;5034151;28;20030;-80
2024/01/06 00:39:30;;;;;;;10.00;6.80;;;12.00;99.90;;;;;;5035384;28;20414;-80
2024/01/06 00:41:56;;;;;;;14.07;8.52;;;12.00;99.90;;;;;;5033804;28;20536;-80
2024/01/06 00:44:21;;;;;;;12.35;7.80;;;11.90;99.90;;;;;;5036104;28;20022;-80
2024/01/06 00:46:47;;;;;;;12.75;6.90;;;11.90;99.90;;;;;;5035344;28;20088;-80
2024/01/06 00:49:13;;;;;;;13.38;7.90;;;11.90;99.90;;;;;;5037806;28;20029;-81
2024/01/06 00:51:38;;;;;;;10.45;6.90;;;11.90;99.90;;;;;;5034630;28;20379;-80
2024/01/06 00:54:04;;;;;;;11.15;6.50;;;11.90;99.90;;;;;;5033006;28;20533;-80
2024/01/06 00:56:30;;;;;;;12.30;7.28;;;11.90;99.90;;;;;;5035087;28;20038;-80
2024/01/06 00:58:55;;;;;;;10.98;6.65;;;12.00;99.90;;;;;;5034791;28;20060;-80
2024/01/06 01:01:21;;;;;;;8.63;5.65;;;12.00;99.90;;;;;;5034837;28;20033;-80
2024/01/06 01:03:47;;;;;;;8.48;5.40;;;12.00;99.90;;;;;;5034562;28;20021;-80
2024/01/06 01:06:13;;;;;;;7.05;5.38;;;11.90;99.90;;;;;;5034308;28;20488;-81
2024/01/06 01:08:38;;;;;;;10.13;5.95;;;11.90;99.90;;;;;;5033145;28;20045;-81
2024/01/06 01:11:04;;;;;;;6.47;4.70;;;11.90;99.90;;;;;;5034990;28;20097;-80
2024/01/06 01:13:30;;;;;;;7.13;4.60;;;11.90;99.90;;;;;;5033476;28;20448;-81
2024/01/06 01:15:56;;;;;;;8.13;4.72;;;11.90;99.90;;;;;;5034562;28;20375;-82
2024/01/06 01:18:22;;;;;;;7.88;4.60;;;11.90;99.90;;;;;;5033444;28;20024;-82
2024/01/06 01:20:47;;;;;;;6.72;4.05;;;12.00;99.90;;;;;;5022670;28;20018;-82
2024/01/06 01:23:13;;;;;;;6.07;4.10;;;12.00;99.90;;;;;;5046688;28;20560;-81
2024/01/06 01:25:39;;;;;;;6.43;3.83;;;12.00;99.90;;;;;;5034523;28;20038;-82
2024/01/06 01:28:04;;;;;;;7.70;4.13;;;12.00;99.90;;;;;;5034294;28;20031;-82
2024/01/06 01:30:32;;;;;;;8.82;3.58;;;12.00;99.90;;;;;;5032945;28;20033;-81
2024/01/06 01:32:58;;;;;;;5.63;3.35;;;12.10;99.90;;;;;;5034296;28;20083;-82
2024/01/06 01:35:24;;;;;;;5.18;3.45;;;12.10;99.90;;;;;;5034239;28;20033;-82
2024/01/06 01:37:50;;;;;;;6.35;3.25;;;12.10;99.90;;;;;;5034770;28;20044;-82
2024/01/06 01:40:15;;;;;;;5.70;3.40;;;12.10;99.90;;;;;;5034575;28;20064;-82
2024/01/06 01:42:43;;;;;;;6.38;3.60;;;12.10;99.90;;;;;;5034200;28;20453;-82
2024/01/06 01:45:08;;;;;;;5.80;3.00;;;12.10;99.90;;;;;;5033914;28;20041;-82
2024/01/06 01:47:34;;;;;;;5.15;3.35;;;12.10;99.90;;;;;;5033817;28;20518;-82
2024/01/06 01:50:01;;;;;;;5.88;3.58;;;12.10;99.90;;;;;;5024947;28;20021;-82
2024/01/06 01:52:27;;;;;;;7.80;3.60;;;12.10;99.90;;;;;;5037985;28;20063;-82
2024/01/06 01:54:53;;;;;;;5.10;3.55;;;12.10;99.90;;;;;;5040044;28;20128;-82
2024/01/06 01:57:23;;;;;;;7.65;3.83;;;12.10;99.90;;;;;;5034796;28;20452;-82
2024/01/06 01:59:49;;;;;;;5.05;3.10;;;12.10;99.90;;;;;;5032482;28;20037;-81
2024/01/06 02:02:15;;;;;;;7.28;3.88;;;12.10;99.90;;;;;;5033840;28;20010;-82
2024/01/06 02:04:41;;;;;;;5.00;3.28;;;12.10;99.90;;;;;;5031488;28;20362;-82
2024/01/06 02:07:07;;;;;;;5.90;3.22;;;12.10;99.90;;;;;;5033193;28;20503;-82
2024/01/06 02:09:33;;;;;;;7.43;4.25;;;12.10;99.90;;;;;;5048859;28;20033;-82
2024/01/06 02:11:58;;;;;;;7.35;3.70;;;12.10;99.90;;;;;;5034726;28;20033;-82
2024/01/06 02:14:24;;;;;;;7.80;4.07;;;12.10;99.90;;;;;;5034093;28;20388;-82
2024/01/06 02:16:50;;;;;;;7.85;3.83;;;12.10;99.90;;;;;;5033310;28;20032;-81
2024/01/06 02:19:17;;;;;;;6.97;3.67;;;12.10;99.90;;;;;;5034625;28;20408;-82
2024/01/06 02:21:44;;;;;;;8.35;3.22;;;12.10;99.90;;;;;;5032738;28;20031;-81
2024/01/06 02:24:10;;;;;;;4.45;2.90;;;12.10;99.90;;;;;;5033439;28;20037;-82
2024/01/06 02:26:36;;;;;;;6.03;2.67;;;12.10;99.90;;;;;;5033497;28;20025;-82
2024/01/06 02:29:01;;;;;;;9.68;3.40;;;12.10;99.90;;;;;;5040147;28;20035;-82
2024/01/06 02:31:27;;;;;;;6.80;3.30;;;12.10;99.90;;;;;;5037509;28;20053;-82
2024/01/06 02:33:53;;;;;;;6.72;3.38;;;12.10;99.90;;;;;;5031793;28;20393;-82
2024/01/06 02:36:19;;;;;;;3.88;2.55;;;12.10;99.90;;;;;;5033226;28;20018;-82
2024/01/06 02:38:45;;;;;;;3.92;2.75;;;12.10;99.90;;;;;;5033324;28;20455;-82
2024/01/06 02:41:10;;;;;;;4.22;2.60;;;12.10;99.90;;;;;;5033311;28;20022;-82
2024/01/06 02:43:36;;;;;;;3.78;2.95;;;12.10;99.90;;;;;;5033294;28;20121;-81
2024/01/06 02:46:02;;;;;;;5.95;2.33;;;12.10;99.90;;;;;;5032405;28;20034;-81
2024/01/06 02:48:30;;;;;;;3.25;2.10;;;12.10;99.90;;;;;;5032865;28;20033;-81
2024/01/06 02:50:56;;;;;;;5.72;3.20;;;12.10;99.90;;;;;;5031830;28;20040;-81
2024/01/06 02:53:22;;;;;;;3.33;2.45;;;12.10;99.90;;;;;;5032237;28;20044;-81
2024/01/06 02:55:50;;;;;;;5.53;2.55;;;12.10;99.90;;;;;;5031266;28;20151;-81
2024/01/06 02:58:16;;;;;;;3.60;2.17;;;12.10;99.90;;;;;;5032823;28;20032;-81
2024/01/06 03:00:42;;;;;;;4.63;2.45;;;12.10;99.90;;;;;;5032229;28;20026;-80
2024/01/06 03:03:08;;;;;;;6.47;2.47;;;12.10;99.90;;;;;;5031835;28;20411;-81
2024/01/06 03:05:34;;;;;;;2.97;2.13;;;12.10;99.90;;;;;;5030479;28;20029;-81
2024/01/06 03:07:59;;;;;;;3.15;2.15;;;12.10;99.90;;;;;;5035003;28;20037;-80
2024/01/06 03:10:26;;;;;;;3.70;2.20;;;12.10;99.90;;;;;;5043667;28;20033;-80
2024/01/06 03:12:51;;;;;;;4.82;2.10;;;12.10;99.90;;;;;;5032544;28;20427;-81
2024/01/06 03:15:17;;;;;;;4.80;2.65;;;12.10;99.90;;;;;;5032450;28;20057;-81
2024/01/06 03:17:45;;;;;;;3.28;2.15;;;12.10;99.90;;;;;;5032268;28;20033;-81
2024/01/06 03:20:11;;;;;;;3.72;2.22;;;12.10;99.90;;;;;;5033840;28;20030;-81
2024/01/06 03:22:38;;;;;;;3.17;2.10;;;12.10;99.90;;;;;;5032176;28;20026;-82
2024/01/06 03:25:05;;;;;;;4.32;2.10;;;12.10;99.90;;;;;;5032312;28;20048;-82
2024/01/06 03:27:33;;;;;;;2.92;2.17;;;12.10;99.90;;;;;;5032443;28;20456;-82
2024/01/06 03:29:59;;;;;;;2.30;1.92;;;12.10;99.90;;;;;;5041739;28;20037;-82
2024/01/06 03:32:25;;;;;;;3.17;2.13;;;12.10;99.90;;;;;;5032094;28;20026;-82
2024/01/06 03:34:50;;;;;;;3.45;1.92;;;12.10;99.90;;;;;;5023084;28;20029;-82
2024/01/06 03:37:16;;;;;;;3.25;1.98;;;12.10;99.90;;;;;;5032153;28;20400;-82
2024/01/06 03:39:42;;;;;;;2.65;1.88;;;12.10;99.90;;;;;;5042398;28;20021;-82
2024/01/06 03:42:07;;;;;;;3.38;1.65;;;12.10;99.90;;;;;;5031379;28;20699;-81
2024/01/06 03:44:36;;;;;;;3.00;1.65;;;12.10;99.90;;;;;;5032519;28;20025;-83
2024/01/06 03:47:02;;;;;;;3.53;1.50;;;12.10;99.90;;;;;;5032219;28;20383;-82
2024/01/06 03:49:28;;;;;;;1.83;1.35;;;12.10;99.90;;;;;;5039865;28;20033;-82
2024/01/06 03:51:53;;;;;;;3.85;2.25;;;12.10;99.90;;;;;;5031979;28;20480;-82
2024/01/06 03:54:19;;;;;;;2.03;1.58;;;12.10;99.90;;;;;;5030090;28;20092;-82
2024/01/06 03:56:45;;;;;;;2.83;1.63;;;12.10;99.90;;;;;;5031101;28;20033;-82
2024/01/06 03:59:11;;;;;;;2.88;1.55;;;12.10;99.90;;;;;;5034762;28;20108;-83
2024/01/06 04:01:36;;;;;;;4.07;1.55;;;12.10;99.90;;;;;;5040310;28;20033;-82
2024/01/06 04:04:03;;;;;;;2.53;1.80;;;12.10;99.90;;;;;;5035234;28;20037;-83
2024/01/06 04:06:32;;;;;;;2.30;1.70;;;12.10;99.90;;;;;;5042773;28;20085;-82
2024/01/06 04:08:58;;;;;;;4.28;1.90;;;12.10;99.90;;;;;;5034393;28;20056;-82
2024/01/06 04:11:24;;;;;;;3.88;2.38;;;12.10;99.90;;;;;;5043292;28;20038;-83
2024/01/06 04:13:50;;;;;;;4.05;1.70;;;12.10;99.90;;;;;;5042271;28;20483;-83
2024/01/06 04:16:16;;;;;;;2.03;1.60;;;12.10;99.90;;;;;;5043832;28;20032;-83
2024/01/06 04:18:42;;;;;;;4.57;2.10;;;12.10;99.90;;;;;;5046480;28;20036;-83
2024/01/06 04:21:08;;;;;;;1.58;1.05;;;12.10;99.90;;;;;;5053501;28;20037;-83
2024/01/06 04:23:34;;;;;;;2.33;1.52;;;12.00;99.90;;;;;;5044882;28;20025;-82
2024/01/06 04:26:04;;;;;;;2.20;1.63;;;12.10;99.90;;;;;;5042550;28;20067;-82
2024/01/06 04:28:30;;;;;;;3.00;1.60;;;12.10;99.90;;;;;;5042408;28;20021;-82
2024/01/06 04:30:56;;;;;;;4.22;1.75;;;12.10;99.90;;;;;;5040955;28;20041;-82
2024/01/06 04:33:21;;;;;;;3.85;1.65;;;12.10;99.90;;;;;;5028822;28;20480;-82
2024/01/06 04:35:48;;;;;;;5.38;2.00;;;12.10;99.90;;;;;;5032495;28;20073;-82
2024/01/06 04:38:14;;;;;;;2.78;1.90;;;12.10;99.90;;;;;;5033666;28;20030;-82
2024/01/06 04:40:39;;;;;;;1.83;1.48;;;12.10;99.90;;;;;;5035791;28;20030;-82
2024/01/06 04:43:05;;;;;;;2.80;1.73;;;12.10;99.90;;;;;;5033950;28;20128;-82
2024/01/06 04:45:31;;;;;;;1.85;1.45;;;12.10;99.90;;;;;;5035127;28;20044;-82
2024/01/06 04:47:56;;;;;;;3.38;2.00;;;12.10;99.90;;;;;;5042516;28;20052;-82
2024/01/06 04:50:22;;;;;;;3.13;1.80;;;12.10;99.90;;;;;;5036785;28;20040;-82
2024/01/06 04:52:48;;;;;;;2.85;1.58;;;12.10;99.90;;;;;;5036659;28;20375;-82
2024/01/06 04:55:14;;;;;;;3.15;1.40;;;12.10;99.90;;;;;;5036063;28;20040;-82
2024/01/06 04:57:39;;;;;;;3.75;2.10;;;12.10;99.90;;;;;;5035880;28;20065;-82
2024/01/06 05:00:06;;;;;;;4.40;1.88;;;12.20;99.90;;;;;;5035619;28;20483;-82
2024/01/06 05:02:31;;;;;;;4.18;1.70;;;12.10;99.90;;;;;;5034705;28;20018;-82
2024/01/06 05:04:57;;;;;;;3.78;1.80;;;12.10;99.90;;;;;;5024879;28;20033;-82
2024/01/06 05:07:23;;;;;;;3.13;1.65;;;12.10;99.90;;;;;;5034689;28;20364;-82
2024/01/06 05:09:48;;;;;;;3.95;1.52;;;12.10;99.90;;;;;;5034377;28;20048;-82
2024/01/06 05:12:14;;;;;;;2.92;1.75;;;12.10;99.90;;;;;;5034777;28;20036;-81
2024/01/06 05:14:43;;;;;;;5.88;1.77;;;12.10;99.90;;;;;;5034717;28;20490;-81
2024/01/06 05:17:09;;;;;;;2.42;1.60;;;12.10;99.90;;;;;;5034483;28;20513;-81
2024/01/06 05:19:35;;;;;;;5.82;1.77;;;12.20;99.90;;;;;;5034643;28;20026;-81
2024/01/06 05:22:00;;;;;;;4.15;1.98;;;12.20;99.90;;;;;;5033170;28;20029;-82
2024/01/06 05:24:26;;;;;;;2.65;1.55;;;12.20;99.90;;;;;;5034883;28;20367;-82
2024/01/06 05:26:52;;;;;;;4.60;1.67;;;12.20;99.90;;;;;;5033939;28;20087;-82
2024/01/06 05:29:18;;;;;;;3.13;1.70;;;12.10;99.90;;;;;;5033292;28;20065;-82
2024/01/06 05:31:46;;;;;;;3.65;1.58;;;12.10;99.90;;;;;;5033313;28;20033;-82
2024/01/06 05:34:11;;;;;;;4.50;1.75;;;12.10;99.90;;;;;;5021666;28;20427;-82
2024/01/06 05:36:37;;;;;;;2.45;1.70;;;12.10;99.90;;;;;;5034432;28;20068;-82
2024/01/06 05:39:03;;;;;;;3.53;1.90;;;12.10;99.90;;;;;;5034062;28;20040;-82
2024/01/06 05:41:28;;;;;;;3.95;1.55;;;12.20;99.90;;;;;;5033088;28;20502;-83
2024/01/06 05:43:54;;;;;;;2.95;1.52;;;12.10;99.90;;;;;;5034714;28;20048;-82
2024/01/06 05:46:23;;;;;;;2.17;1.30;;;12.10;99.90;;;;;;5034080;28;20126;-82
2024/01/06 05:48:49;;;;;;;2.25;1.35;;;12.10;99.90;;;;;;5035504;28;20716;-81
2024/01/06 05:51:15;;;;;;;2.05;1.25;;;12.10;99.90;;;;;;5033910;28;20025;-82
2024/01/06 05:53:42;;;;;;;2.17;1.42;;;12.10;99.90;;;;;;5032422;28;20056;-81
2024/01/06 05:56:08;;;;;;;3.42;1.30;;;12.10;99.90;;;;;;5033669;28;20056;-81
2024/01/06 05:58:35;;;;;;;2.88;1.33;;;12.10;99.90;;;;;;5037694;28;20036;-81
2024/01/06 06:01:00;;;;;;;2.15;1.10;;;12.10;99.90;;;;;;5036528;28;20100;-82
2024/01/06 06:03:26;;;;;;;1.80;1.10;;;12.10;99.90;;;;;;5024728;28;20267;-81
2024/01/06 06:05:52;;;;;;;1.23;1.13;;;12.10;99.90;;;;;;5030375;28;20363;-81
2024/01/06 06:08:18;;;;;;;1.38;1.10;;;12.10;99.90;;;;;;5033882;28;20025;-81
2024/01/06 06:11:04;;;;;;;1.13;1.02;;;12.10;99.90;;;;;;5033801;28;20021;-82
2024/01/06 06:13:31;;;;;;;3.03;1.60;;;12.10;99.90;;;;;;5033962;28;20035;-82
2024/01/06 06:15:57;;;;;;;3.45;1.30;;;12.10;99.90;;;;;;5033283;28;20037;-81
2024/01/06 06:18:23;;;;;;;1.65;1.00;;;12.00;99.90;;;;;;5036535;28;20036;-82
2024/01/06 06:20:49;;;;;;;1.25;1.02;;;12.00;99.90;;;;;;5032423;28;20033;-81
2024/01/06 06:23:15;;;;;;;1.75;1.00;;;12.00;99.90;;;;;;5032989;28;20026;-80
2024/01/06 06:25:40;;;;;;;2.50;0.70;;;12.00;99.90;;;;;;5033762;28;20037;-81
2024/01/06 06:28:06;;;;;;;1.83;0.70;;;11.90;99.90;;;;;;5033658;28;20037;-81
2024/01/06 06:30:32;;;;;;;2.75;0.95;;;11.90;99.90;;;;;;5033380;28;20034;-81
2024/01/06 06:32:58;;;;;;;0.75;0.75;;;11.90;99.90;;;;;;5025895;28;20108;-81
2024/01/06 06:35:24;;;;;;;2.10;1.08;;;11.80;99.90;;;;;;5032503;28;20125;-80
2024/01/06 06:37:50;;;;;;;0.80;0.70;;;11.80;99.90;;;;;;5033448;28;20021;-80
2024/01/06 06:40:16;;;;;;;1.40;0.60;;;11.80;99.90;;;;;;5047547;28;20498;-81
2024/01/06 06:42:41;;;;;;;2.05;0.75;;;11.80;99.90;;;;;;5032249;28;20036;-82
2024/01/06 06:45:08;;;;;;;1.67;0.95;;;11.80;99.90;;;;;;5033587;28;20109;-81
2024/01/06 06:47:33;;;;;;;1.27;0.80;;;11.90;99.90;;;;;;5029154;28;20033;-81
2024/01/06 06:50:05;;;;;;;1.95;0.98;;;11.90;99.90;;;;;;5036368;28;20129;-81
2024/01/06 06:52:35;;;;;;;4.78;1.65;;;11.90;99.90;;;;;;5033826;28;20025;-80
2024/01/06 06:55:07;;;;;;;0.90;0.60;;;11.90;99.90;;;;;;5033492;28;20403;-81
2024/01/06 06:57:33;;;;;;;2.47;1.27;;;11.90;99.90;;;;;;5035452;28;20582;-81
2024/01/06 07:00:00;;;;;;;1.25;0.82;;;11.80;99.90;;;;;;5035969;28;20053;-81
2024/01/06 07:02:26;;;;;;;3.35;1.30;;;11.80;99.90;;;;;;5034424;28;20052;-82
2024/01/06 07:04:51;;;;;;;2.47;1.15;;;11.90;99.90;;;;;;5035793;28;20463;-82
2024/01/06 07:07:17;;;;;;;3.90;1.42;;;11.90;99.90;;;;;;5033811;28;20075;-81
2024/01/06 07:09:43;;;;;;;2.95;1.20;;;11.90;99.90;;;;;;5035768;28;20036;-81
2024/01/06 07:12:11;;;;;;;1.92;1.00;;;11.90;99.90;;;;;;5033035;28;20120;-84
2024/01/06 07:14:37;;;;;;;1.85;1.05;;;11.90;99.90;;;;;;5031790;28;20031;-81
2024/01/06 07:17:04;;;;;;;1.00;0.70;;;11.90;99.90;;;;;;5036401;28;20029;-80
2024/01/06 07:19:32;;;;;;;2.30;1.02;;;11.90;99.90;;;;;;5035395;28;20553;-81
2024/01/06 07:21:57;;;;;;;1.67;0.77;;;11.90;99.90;;;;;;5061407;28;20478;-81
2024/01/06 07:24:23;;;;;;;1.35;0.55;;;11.90;99.90;;;;;;5021234;28;20026;-82
2024/01/06 07:26:49;;;;;;;2.45;0.98;;;12.00;99.90;;;;;;5032915;28;20040;-81
2024/01/06 07:29:15;;;;;;;1.85;0.90;;;12.00;99.90;;;;;;5028637;28;20065;-81
2024/01/06 07:31:43;;;;;;;1.52;0.95;;;12.00;99.90;;;;;;5033616;28;20036;-80
2024/01/06 07:34:09;;;;;;;0.93;0.80;;;12.00;99.90;;;;;;5036615;28;20471;-80
2024/01/06 07:36:38;;;;;;;3.15;1.25;;;12.00;99.90;;;;;;5037505;28;20079;-81
2024/01/06 07:39:05;;;;;;;1.10;0.90;;;12.10;99.90;;;;;;5039089;28;20052;-81
2024/01/06 07:41:32;;;;;;;1.25;0.80;;;12.00;99.90;;;;;;5031736;28;20064;-80
2024/01/06 07:43:58;;;;;;;1.88;0.82;;;12.00;99.90;;;;;;5037320;28;20455;-80
2024/01/06 07:46:24;;;;;;;1.08;0.85;;;12.10;99.90;;;;;;5036127;28;20037;-79
2024/01/06 07:48:52;;;;;;;1.50;0.93;;;12.10;99.90;;;;;;5035835;28;20025;-76
2024/01/06 07:51:18;;;;;;;1.45;1.15;;;12.10;99.90;;;;;;5036183;28;20032;-77
2024/01/06 07:53:44;;;;;;;1.55;1.08;;;12.10;99.90;;;;;;5041764;28;20042;-77
2024/01/06 07:56:10;;;;;;;1.85;0.82;;;12.10;99.90;;;;;;5049971;28;20061;-77
2024/01/06 07:58:35;;;;;;;1.40;0.80;;;12.10;99.90;;;;;;5041507;28;20053;-77
2024/01/06 08:01:04;;;;;;;1.23;0.90;;;12.00;99.90;;;;;;5041547;28;20029;-77
2024/01/06 08:03:29;;;;;;;2.15;1.00;;;12.10;99.90;;;;;;5023746;28;20022;-77
2024/01/06 08:06:12;;;;;;;1.65;1.17;;;12.00;99.90;;;;;;5029173;28;20475;-79
2024/01/06 08:08:37;;;;;;;1.05;0.88;;;12.10;99.90;;;;;;5030599;28;20041;-78
2024/01/06 08:11:03;;;;;;;2.17;1.33;;;12.10;99.90;;;;;;5032215;28;20033;-77
2024/01/06 08:13:29;;;;;;;1.77;1.30;;;12.10;99.90;;;;;;5034237;28;20082;-78
2024/01/06 08:15:55;;;;;;;1.20;1.00;;;12.10;99.90;;;;;;5035939;28;20034;-77
2024/01/06 08:18:21;;;;;;;2.92;1.63;;;12.10;99.90;;;;;;5047174;28;20104;-77
2024/01/06 08:20:47;;;;;;;2.20;1.30;;;12.10;99.90;;;;;;5041439;28;20470;-77
2024/01/06 08:23:13;;;;;;;2.15;1.40;;;12.10;99.90;;;;;;5046524;28;20021;-77
2024/01/06 08:25:38;;;;;;;1.27;1.00;;;12.10;99.90;;;;;;5037990;28;20061;-77
2024/01/06 08:28:04;;;;;;;2.33;1.20;;;12.10;99.90;;;;;;5047510;28;20482;-78
2024/01/06 08:30:30;;;;;;;3.20;1.40;;;12.10;99.90;;;;;;5035763;28;20029;-78
2024/01/06 08:32:56;;;;;;;2.78;1.75;;;12.10;99.90;;;;;;5035145;28;20482;-80
2024/01/06 08:35:21;;;;;;;1.73;1.30;;;12.10;99.90;;;;;;5044094;28;20100;-79
2024/01/06 08:37:50;;;;;;;1.85;1.60;;;12.20;99.90;;;;;;5041494;28;20109;-78
2024/01/06 08:40:16;;;;;;;2.95;1.30;;;12.10;99.90;;;;;;5034306;28;20464;-78
2024/01/06 08:42:43;;;;;;;1.88;1.20;;;12.10;99.90;;;;;;5034362;28;20060;-78
2024/01/06 08:45:09;;;;;;;3.83;1.35;;;12.10;99.90;;;;;;5035262;28;20116;-79
2024/01/06 08:47:35;;;;;;;1.75;1.40;;;12.10;99.90;;;;;;5035548;28;20527;-78
2024/01/06 08:50:00;;;;;;;1.15;1.02;;;12.10;99.90;;;;;;5035835;28;20048;-79
2024/01/06 08:52:26;;;;;;;1.40;1.30;;;12.20;99.90;;;;;;5038318;28;20100;-78
2024/01/06 08:54:52;;;;;;;2.47;1.42;;;12.20;99.90;;;;;;5040121;28;20045;-79
2024/01/06 08:57:17;;;;;;;3.72;1.20;;;12.20;99.90;;;;;;5033977;28;20037;-79
2024/01/06 08:59:45;;;;;;;3.67;1.30;;;12.20;99.90;;;;;;5035911;28;20044;-80
2024/01/06 09:02:11;;;;;;;2.78;1.30;;;12.20;99.90;;;;;;5038128;28;20021;-80
2024/01/06 09:04:36;;;;;;;2.85;1.25;;;12.20;99.90;;;;;;5041894;28;20013;-79
2024/01/06 09:07:02;;;;;;;1.55;1.20;;;12.20;99.90;;;;;;5029203;28;20021;-79
2024/01/06 09:09:28;;;;;;;1.60;1.13;;;12.20;99.90;;;;;;5035250;28;20040;-79
2024/01/06 09:11:54;;;;;;;1.27;1.17;;;12.30;99.90;;;;;;5035864;28;20025;-79
2024/01/06 09:14:19;;;;;;;1.75;1.38;;;12.30;99.90;;;;;;5040466;28;20036;-79
2024/01/06 09:16:45;;;;;;;3.30;1.45;;;12.30;99.90;;;;;;5035318;28;20029;-79
2024/01/06 09:19:11;;;;;;;2.95;1.83;;;12.30;99.90;;;;;;5038351;28;20345;-81
2024/01/06 09:21:36;;;;;;;2.45;1.45;;;12.30;99.90;;;;;;5036929;28;20029;-81
2024/01/06 09:24:06;;;;;;;1.90;1.60;;;12.30;99.90;;;;;;5036793;28;20040;-80
2024/01/06 09:26:35;;;;;;;2.40;1.50;;;12.40;99.90;;;;;;5028770;28;20475;-81
2024/01/06 09:29:01;;;;;;;3.85;1.65;;;12.40;99.90;;;;;;5021794;28;20264;-81
2024/01/06 09:31:27;;;;;;;1.20;1.00;;;12.40;99.90;;;;;;5037959;28;20387;-80
2024/01/06 09:33:52;;;;;;;4.22;1.75;;;12.40;99.90;;;;;;5028474;28;20040;-80
2024/01/06 09:36:18;;;;;;;1.92;1.35;;;12.40;99.90;;;;;;5029637;28;20479;-80
2024/01/06 09:38:44;;;;;;;3.00;1.52;;;12.40;99.90;;;;;;5034420;28;20523;-80
2024/01/06 09:41:10;;;;;;;1.90;1.38;;;12.40;99.90;;;;;;5035386;28;20033;-80
2024/01/06 09:43:37;;;;;;;2.22;1.58;;;12.30;99.90;;;;;;5030711;28;20031;-80
2024/01/06 09:46:10;;;;;;;2.42;1.58;;;12.40;99.90;;;;;;5030668;28;20136;-80
2024/01/06 09:48:40;;;;;;;2.05;1.58;;;12.40;99.90;;;;;;5030722;28;20055;-80
2024/01/06 09:51:10;;;;;;;1.92;1.60;;;12.40;99.90;;;;;;5033769;28;20037;-80
2024/01/06 09:53:39;;;;;;;2.70;1.60;;;12.40;99.90;;;;;;5033924;28;20112;-80
2024/01/06 09:56:06;;;;;;;1.58;1.33;;;12.40;99.90;;;;;;5034601;28;20084;-81
2024/01/06 09:58:34;;;;;;;1.25;1.15;;;12.40;99.90;;;;;;5032535;28;20017;-80
2024/01/06 10:01:01;;;;;;;2.08;1.38;;;12.40;99.90;;;;;;5031678;28;20033;-80
2024/01/06 10:03:27;;;;;;;3.60;1.60;;;12.30;99.90;;;;;;5028344;28;20049;-80
2024/01/06 10:05:53;;;;;;;2.28;1.70;;;12.30;99.90;;;;;;5038361;28;20455;-80
2024/01/06 10:08:19;;;;;;;3.47;1.67;;;12.30;99.90;;;;;;5033780;28;20427;-80
2024/01/06 10:10:45;;;;;;;2.00;1.55;;;12.30;99.90;;;;;;5032862;28;20112;-80
2024/01/06 10:13:11;;;;;;;3.35;1.80;;;12.30;99.90;;;;;;5029791;28;20479;-79
2024/01/06 10:15:36;;;;;;;2.58;1.50;;;12.30;99.90;;;;;;5029453;28;20083;-80
2024/01/06 10:18:03;;;;;;;1.88;1.52;;;12.30;99.90;;;;;;5034110;28;20017;-79
2024/01/06 10:20:29;;;;;;;3.50;1.27;;;12.30;99.90;;;;;;5031292;28;20078;-79
2024/01/06 10:22:55;;;;;;;1.88;1.30;;;12.30;99.90;;;;;;5033350;28;20018;-79
2024/01/06 10:25:23;;;;;;;1.67;1.30;;;12.40;99.90;;;;;;5032932;28;20033;-81
2024/01/06 10:27:49;;;;;;;2.50;1.30;;;12.30;99.90;;;;;;5032354;28;20026;-79
2024/01/06 10:30:18;;;;;;;1.80;1.30;;;12.30;99.90;;;;;;5031515;28;20037;-79
2024/01/06 10:32:44;;;;;;;4.97;1.30;;;12.30;99.90;;;;;;5032851;28;20013;-82
2024/01/06 10:35:09;;;;;;;3.17;1.30;;;12.30;99.90;;;;;;5033091;28;20108;-79
2024/01/06 10:37:37;;;;;;;1.40;1.02;;;12.30;99.90;;;;;;5033500;28;20093;-79
2024/01/06 10:40:11;;;;;;;1.63;0.88;;;12.30;99.90;;;;;;5032973;28;20029;-80
2024/01/06 10:42:40;;;;;;;2.75;1.20;;;12.30;99.90;;;;;;5032150;28;20461;-78
2024/01/06 10:45:10;;;;;;;1.98;1.20;;;12.30;99.90;;;;;;5029941;28;20368;-78
2024/01/06 10:47:37;;;;;;;7.13;1.13;;;12.30;99.90;;;;;;5033334;28;20109;-78
2024/01/06 10:50:04;;;;;;;2.47;1.05;;;12.30;99.90;;;;;;5032696;28;20467;-78
2024/01/06 10:52:30;;;;;;;2.20;1.00;;;12.30;99.90;;;;;;5033387;28;20084;-78
2024/01/06 10:54:56;;;;;;;1.30;0.90;;;12.30;99.90;;;;;;5033140;28;20037;-78
2024/01/06 10:57:23;;;;;;;1.40;0.85;;;12.30;99.90;;;;;;5033322;28;20025;-78
2024/01/06 10:59:52;;;;;;;1.83;1.38;;;12.30;99.90;;;;;;5033793;28;20104;-78
2024/01/06 11:02:19;;;;;;;1.10;1.00;;;12.30;99.90;;;;;;5033629;28;20147;-79
2024/01/06 11:04:50;;;;;;;2.38;1.50;;;12.30;99.90;;;;;;5033443;28;20029;-78
2024/01/06 11:07:18;;;;;;;1.33;0.90;;;12.40;99.90;;;;;;5032689;28;20052;-78
2024/01/06 11:10:02;;;;;;;1.88;1.10;;;12.30;99.90;;;;;;5033198;28;20096;-79
2024/01/06 11:12:28;;;;;;;2.85;1.40;;;12.30;99.90;;;;;;5020250;28;20074;-78
2024/01/06 11:14:54;;;;;;;3.60;1.20;;;12.30;99.90;;;;;;5021486;28;20069;-78
2024/01/06 11:17:55;;;;;;;1.10;1.00;;;12.30;99.90;;;;;;5078455;22;20135;-79
2024/01/06 11:20:24;;;;;;;2.13;1.23;;;12.30;99.90;;;;;;5092781;28;20036;-79
2024/01/06 11:22:51;;;;;;;1.97;1.20;;;12.30;99.90;;;;;;5092819;28;20032;-79
2024/01/06 11:25:22;;;;;;;0.95;0.82;;;12.30;99.90;;;;;;5091314;28;20028;-79
2024/01/06 11:27:50;;;;;;;3.47;1.20;;;12.30;99.90;;;;;;5091276;28;20048;-79
2024/01/06 11:30:24;;;;;;;2.03;1.30;;;12.30;99.90;;;;;;5092962;28;20103;-79
2024/01/06 11:32:58;;;;;;;2.28;1.45;;;12.30;99.90;;;;;;5092951;28;20020;-79
2024/01/06 11:35:28;;;;;;;1.58;1.00;;;12.30;99.90;;;;;;5092553;28;20024;-79
2024/01/06 11:37:56;;;;;;;2.72;0.90;;;12.40;99.90;;;;;;5092934;28;20392;-79
2024/01/06 11:40:25;;;;;;;1.80;1.08;;;12.40;99.90;;;;;;5092824;28;20020;-79
2024/01/06 11:42:57;;;;;;;1.83;1.30;;;12.40;99.90;;;;;;5092655;28;20024;-79
2024/01/06 11:45:25;;;;;;;1.48;1.10;;;12.40;99.90;;;;;;5092745;28;20059;-79
2024/01/06 11:47:58;;;;;;;1.58;0.95;;;12.40;99.90;;;;;;5091200;28;20055;-79
2024/01/06 11:50:26;;;;;;;1.88;1.20;;;12.40;99.90;;;;;;5091457;28;20054;-79
2024/01/06 11:52:52;;;;;;;1.67;0.82;;;12.40;99.90;;;;;;5091480;28;20063;-79
2024/01/06 11:55:18;;;;;;;1.83;1.10;;;12.40;99.90;;;;;;5092834;28;20039;-79
2024/01/06 11:57:44;;;;;;;2.20;1.00;;;12.40;99.90;;;;;;5092572;28;20099;-79
2024/01/06 12:00:11;;;;;;;3.30;1.08;;;12.40;99.90;;;;;;5091293;28;20553;-79
2024/01/06 12:02:37;;;;;;;3.22;1.50;;;12.40;99.90;;;;;;5092473;28;20056;-79
2024/01/06 12:05:03;;;;;;;1.52;1.00;;;12.40;99.90;;;;;;5092498;28;20048;-79
2024/01/06 12:07:29;;;;;;;1.98;1.10;;;12.40;99.90;;;;;;5092824;28;20043;-79
2024/01/06 12:10:02;;;;;;;1.42;0.95;;;12.40;99.90;;;;;;5092149;28;20027;-79
2024/01/06 12:12:28;;;;;;;1.58;1.08;;;12.40;99.90;;;;;;5090789;28;20044;-79
2024/01/06 12:14:53;;;;;;;1.63;1.10;;;12.40;99.90;;;;;;5093059;28;20020;-79
2024/01/06 12:17:21;;;;;;;1.75;1.00;;;12.40;99.90;;;;;;5092534;28;20398;-79
2024/01/06 12:19:47;;;;;;;3.47;1.20;;;12.40;99.90;;;;;;5094880;28;20020;-79
2024/01/06 12:22:15;;;;;;;1.35;1.10;;;12.40;99.90;;;;;;5096849;28;20028;-79
2024/01/06 12:24:41;;;;;;;2.38;1.38;;;12.40;99.90;;;;;;5096701;28;20028;-79
2024/01/06 12:27:11;;;;;;;2.08;1.58;;;12.40;99.90;;;;;;5103106;28;20051;-79
2024/01/06 12:29:43;;;;;;;1.55;1.08;;;12.40;99.90;;;;;;5116894;28;20023;-79
2024/01/06 12:32:10;;;;;;;1.88;1.27;;;12.40;99.90;;;;;;5116929;28;20038;-79
2024/01/06 12:34:36;;;;;;;3.97;1.65;;;12.40;99.90;;;;;;5116898;28;20031;-79
2024/01/06 12:37:02;;;;;;;1.55;1.10;;;12.40;99.90;;;;;;5103675;28;20347;-79
2024/01/06 12:39:29;;;;;;;1.38;1.27;;;12.40;99.90;;;;;;5096487;28;20477;-79
2024/01/06 12:41:55;;;;;;;1.60;1.00;;;12.40;99.90;;;;;;5096216;28;20049;-79